KLTS

Altus AFB Airport

Altus, Oklahoma, USA
METAR KLTS 172056Z AUTO 03014KT 10SM FEW160 FEW220 16/M03 A3015 RMK AO2 SLP211 T01601030 50001 $
Observed Flight Rules
Feb-17 @ 20:56 UTC (36 minutes ago) Visual Flight Rules
Wind Visibility Clouds
30° at 14 knots 10 miles
  • Few at 16,000' AGL
  • Few at 22,000' AGL
Temperatures Readings
Current 16°C / 61°F
Dewpoint -3°C / 27°F
Humidity 27%
Altimeter 30.15" Hg
Pressure 1021.1 hPa
Elevation 420
METAR KLTS 172056Z AUTO 03014KT 10SM FEW160 FEW220 16/M03 A3015 RMK AO2 SLP211 T01601030 50001 $
Observed Flight Rules
Feb-17 @ 20:56 UTC
(36 minutes ago)
VFR
Wind Visibility
30° at 14 knots 10 miles
Clouds
  • Few at 16,000' AGL
  • Few at 22,000' AGL
Temperature Dewpoint
16°C / 61°F -3°C / 27°F
Humidity Altimeter Pressure
27% 30.15" Hg 1021.1 hPa